Atyray, Kazakhstan

4:18 AM AQTT on August 22, 2014 (GMT +0500)
Atyrau | Change Station
CLOSE
Current Station
Airport
Location: Atyrau,
Elevation: -72 ft
Nearby Weather Stations

Elev -72 ft 47.12 °N, 51.83 °E | Updated 48 minutes ago

Clear
Clear
70 °F
Feels Like 70 °F
N
4
Wind Variable Wind from South

Today
High -- | Low -- °F
--% Chance of Precip.
Yesterday
High -- | Low -- °F
Precip. -- in
6:37 AM 8:31 PM
Waning Crescent, 11% visible
Pressure 29.83 in
Visibility -9999.0 miles
Clouds
Dew Point 54 °F
Humidity 56%
Rainfall 0.00 in
Snow Depth Not available.
UV Not available.
Pollen Not available.
Air Quality Not available.
Flu Activity Not available.
METAR UATG 212230Z 19002MPS CAVOK 21/12 Q1010 R14/CLRD70 NOSIG RMK QFE760/1013

More Conditions Fewer Conditions

Pressure 29.83 in
Visibility -9999.0 miles
Clouds
Dew Point 54 °F
Humidity 56%
Rainfall 0.00 in
Snow Depth Not available.
UV Not available.
Pollen Not available.
Air Quality Not available.
Flu Activity Not available.
METAR UATG 212230Z 19002MPS CAVOK 21/12 Q1010 R14/CLRD70 NOSIG RMK QFE760/1013

More Conditions Fewer Conditions

10-Day Weather Forecast

Almanac

Astronomy

Aug. 22, 2014 Rise Set
Actual Time 6:37 AM AQTT 8:31 PM AQTT
Civil Twilight 6:05 AM AQTT 9:04 PM AQTT
Nautical Twilight 5:25 AM AQTT 9:44 PM AQTT
Astronomical Twilight 4:40 AM AQTT 10:28 PM AQTT
Moon 3:34 AM AQTT (8/22) 6:29 PM AQTT (8/22)
Length of Visible Light 14h 59m
Length of Day
13h 53m
Tomorrow will be 3m 9s shorter.
Waning Crescent, 11% of the Moon is Illuminated
Aug 21
Waning Crescent
Aug 25
New
Sep 2
First Quarter
Sep 8
Full
Sep 15
Last Quarter

Yesterday's Extremes

Country Highs Country Lows

Community

WunderPhotos

Upload Photos

1,746,051 photos uploaded!

Nearby

Snow Depth

Not available.

Earthquake Activity

City Distance Mag. Time & Date
No recent earthquake activity has been reported nearby.
Minimum magnitude displayed is 2.5.

Coastal Water Temperatures

Place Temperature
No Stations Reporting

Nearby Weather Stations